Impacts TAF Board INFO
FOR SITUATIONAL AWARENESS. NOT TO BE USED FOR FLIGHT PLANNING PURPOSES.
IDs:

KCLE - Cleveland/Hopkins In, OH, US

Issued at 2324 UTC 16 Aug 2017
Updated at 0402 UTC 17 Aug 2017
Potential Impact None Slight Moderate High
Time0351Z 17/05Z 17/06Z 17/07Z 17/08Z 17/09Z 17/10Z 17/11Z 17/12Z 17/13Z 17/14Z 17/15Z 17/16Z 17/17Z>>
Type OBS PRVL PRVL PRVL PRVL PRVL PRVL PRVL PRVL PRVL PRVL PRVL PRVL PRVL
VIS 10 >6 >6 >6 >6 >6 >6 >6 >6 >6 >6 >6 >6 >6
CIG -- -- -- -- -- -- -- -- -- 90 90 70 70 70
Cover SCT FEW FEW FEW FEW FEW FEW FEW FEW BKN BKN OVC OVC OVC
FltCat VFR VFR VFR VFR VFR VFR VFR VFR VFR VFR VFR VFR VFR VFR
WX -- -- -- -- -- -- -- -- -- -- -- -TSRA -TSRA -TSRA
WDir 120 100 100 100 100 100 100 100 100 170 170 180 180 180
WSpd 4 6 6 6 6 6 6 6 6 7 7 8 8 8
WGst -- -- -- -- -- -- -- -- -- -- -- -- -- --

Raw TAF
KCLE 162324Z 1700/1806 06010KT P6SM FEW250
  FM170200 10006KT P6SM FEW250
  FM171300 17007KT P6SM BKN090
  FM171500 18008KT P6SM -TSRA SCT035CB OVC070
  FM180400 20010KT P6SM -SHRA BKN070


Raw METAR
KCLE 170351Z 12004KT 10SM FEW080 SCT250 23/14 A3004 RMK AO2 SLP164 T02330139
KCLE 170251Z 10007KT 10SM FEW065 FEW080 24/14 A3004 RMK AO2 SLP166 T02440139 50005
KCLE 170151Z 09007KT 10SM BKN060 26/14 A3005 RMK AO2 SLP169 T02560139

METAR Board
Radar Display
Forecast Discussion

FOR SITUATIONAL AWARENESS. NOT TO BE USED FOR FLIGHT PLANNING PURPOSES.